sensor_id;sensor_type;location;lat;lon;timestamp;P1;durP1;ratioP1;P2;durP2;ratioP2
43690;SDS011;29293;52.190;21.226;2023-04-06T00:12:49;39.80;;;15.30;;
43690;SDS011;29293;52.190;21.226;2023-04-06T00:27:56;36.70;;;15.70;;
43690;SDS011;29293;52.190;21.226;2023-04-06T00:43:03;41.00;;;16.00;;
43690;SDS011;29293;52.190;21.226;2023-04-06T00:58:10;22.70;;;9.80;;
43690;SDS011;29293;52.190;21.226;2023-04-06T01:13:17;22.60;;;9.60;;
43690;SDS011;29293;52.190;21.226;2023-04-06T01:28:24;15.80;;;7.80;;
43690;SDS011;29293;52.190;21.226;2023-04-06T01:43:31;19.80;;;8.60;;
43690;SDS011;29293;52.190;21.226;2023-04-06T01:58:38;15.30;;;7.90;;
43690;SDS011;29293;52.190;21.226;2023-04-06T02:13:45;21.80;;;8.40;;
43690;SDS011;29293;52.190;21.226;2023-04-06T02:28:52;17.80;;;8.40;;
43690;SDS011;29293;52.190;21.226;2023-04-06T02:43:59;18.60;;;8.30;;
43690;SDS011;29293;52.190;21.226;2023-04-06T02:59:06;18.20;;;8.40;;
43690;SDS011;29293;52.190;21.226;2023-04-06T03:14:13;15.30;;;8.30;;
43690;SDS011;29293;52.190;21.226;2023-04-06T03:29:21;31.70;;;9.10;;
43690;SDS011;29293;52.190;21.226;2023-04-06T03:44:28;23.60;;;9.20;;
43690;SDS011;29293;52.190;21.226;2023-04-06T03:59:35;25.30;;;9.20;;
43690;SDS011;29293;52.190;21.226;2023-04-06T04:14:42;22.30;;;9.30;;
43690;SDS011;29293;52.190;21.226;2023-04-06T04:29:49;18.90;;;7.30;;
43690;SDS011;29293;52.190;21.226;2023-04-06T04:44:55;22.60;;;9.40;;
43690;SDS011;29293;52.190;21.226;2023-04-06T05:00:02;22.60;;;9.40;;
43690;SDS011;29293;52.190;21.226;2023-04-06T05:15:10;20.70;;;8.50;;
43690;SDS011;29293;52.190;21.226;2023-04-06T05:30:17;16.60;;;7.10;;
43690;SDS011;29293;52.190;21.226;2023-04-06T05:45:25;20.50;;;7.00;;
43690;SDS011;29293;52.190;21.226;2023-04-06T06:00:32;17.10;;;7.70;;
43690;SDS011;29293;52.190;21.226;2023-04-06T06:15:41;14.70;;;6.40;;
43690;SDS011;29293;52.190;21.226;2023-04-06T06:30:48;11.00;;;5.30;;
43690;SDS011;29293;52.190;21.226;2023-04-06T06:45:55;8.70;;;4.80;;
43690;SDS011;29293;52.190;21.226;2023-04-06T07:01:03;9.90;;;4.80;;
43690;SDS011;29293;52.190;21.226;2023-04-06T07:16:10;7.00;;;3.90;;
43690;SDS011;29293;52.190;21.226;2023-04-06T07:31:17;6.60;;;3.30;;
43690;SDS011;29293;52.190;21.226;2023-04-06T07:46:24;6.60;;;3.80;;
43690;SDS011;29293;52.190;21.226;2023-04-06T08:01:31;8.70;;;3.60;;
43690;SDS011;29293;52.190;21.226;2023-04-06T08:16:38;8.30;;;3.60;;
43690;SDS011;29293;52.190;21.226;2023-04-06T08:31:45;10.50;;;4.60;;
43690;SDS011;29293;52.190;21.226;2023-04-06T08:46:52;7.50;;;3.60;;
43690;SDS011;29293;52.190;21.226;2023-04-06T09:01:59;7.50;;;4.00;;
43690;SDS011;29293;52.190;21.226;2023-04-06T09:17:09;7.30;;;3.90;;
43690;SDS011;29293;52.190;21.226;2023-04-06T09:32:26;8.40;;;4.20;;
43690;SDS011;29293;52.190;21.226;2023-04-06T09:47:33;7.30;;;3.60;;
43690;SDS011;29293;52.190;21.226;2023-04-06T10:02:45;7.00;;;3.90;;
43690;SDS011;29293;52.190;21.226;2023-04-06T10:17:56;10.70;;;4.50;;
43690;SDS011;29293;52.190;21.226;2023-04-06T10:33:13;8.60;;;4.60;;
43690;SDS011;29293;52.190;21.226;2023-04-06T10:48:21;8.40;;;4.40;;
43690;SDS011;29293;52.190;21.226;2023-04-06T11:03:29;7.80;;;3.20;;
43690;SDS011;29293;52.190;21.226;2023-04-06T11:18:37;10.00;;;5.40;;
43690;SDS011;29293;52.190;21.226;2023-04-06T11:33:56;8.90;;;4.80;;
43690;SDS011;29293;52.190;21.226;2023-04-06T11:49:03;9.50;;;5.70;;
43690;SDS011;29293;52.190;21.226;2023-04-06T12:04:10;9.70;;;5.90;;
43690;SDS011;29293;52.190;21.226;2023-04-06T12:19:17;9.60;;;5.40;;
43690;SDS011;29293;52.190;21.226;2023-04-06T12:34:23;13.00;;;5.00;;
43690;SDS011;29293;52.190;21.226;2023-04-06T12:49:30;8.80;;;4.50;;
43690;SDS011;29293;52.190;21.226;2023-04-06T13:04:37;10.10;;;5.40;;
43690;SDS011;29293;52.190;21.226;2023-04-06T13:19:44;11.40;;;6.30;;
43690;SDS011;29293;52.190;21.226;2023-04-06T13:34:51;9.30;;;5.30;;
43690;SDS011;29293;52.190;21.226;2023-04-06T13:50:02;10.80;;;5.70;;
43690;SDS011;29293;52.190;21.226;2023-04-06T14:05:11;15.10;;;7.00;;
43690;SDS011;29293;52.190;21.226;2023-04-06T14:20:18;11.40;;;6.00;;
43690;SDS011;29293;52.190;21.226;2023-04-06T14:35:25;17.40;;;7.30;;
43690;SDS011;29293;52.190;21.226;2023-04-06T14:50:34;11.90;;;6.90;;
43690;SDS011;29293;52.190;21.226;2023-04-06T15:05:41;17.60;;;7.60;;
43690;SDS011;29293;52.190;21.226;2023-04-06T15:20:49;13.40;;;6.90;;
43690;SDS011;29293;52.190;21.226;2023-04-06T15:35:56;19.70;;;10.00;;
43690;SDS011;29293;52.190;21.226;2023-04-06T15:51:03;11.60;;;6.30;;
43690;SDS011;29293;52.190;21.226;2023-04-06T16:06:10;16.00;;;7.80;;
43690;SDS011;29293;52.190;21.226;2023-04-06T16:21:17;17.70;;;8.70;;
43690;SDS011;29293;52.190;21.226;2023-04-06T16:36:25;19.00;;;9.50;;
43690;SDS011;29293;52.190;21.226;2023-04-06T16:51:34;18.80;;;8.60;;
43690;SDS011;29293;52.190;21.226;2023-04-06T17:06:41;20.00;;;10.10;;
43690;SDS011;29293;52.190;21.226;2023-04-06T17:21:48;22.30;;;11.90;;
43690;SDS011;29293;52.190;21.226;2023-04-06T17:36:55;22.60;;;12.40;;
43690;SDS011;29293;52.190;21.226;2023-04-06T17:52:01;17.00;;;8.90;;
43690;SDS011;29293;52.190;21.226;2023-04-06T18:07:09;28.80;;;15.50;;
43690;SDS011;29293;52.190;21.226;2023-04-06T18:22:16;29.50;;;17.10;;
43690;SDS011;29293;52.190;21.226;2023-04-06T18:37:24;28.80;;;17.40;;
43690;SDS011;29293;52.190;21.226;2023-04-06T18:52:31;29.90;;;16.70;;
43690;SDS011;29293;52.190;21.226;2023-04-06T19:07:41;29.40;;;15.40;;
43690;SDS011;29293;52.190;21.226;2023-04-06T19:22:55;24.70;;;15.80;;
43690;SDS011;29293;52.190;21.226;2023-04-06T19:38:08;17.10;;;11.20;;
43690;SDS011;29293;52.190;21.226;2023-04-06T19:53:17;19.70;;;12.00;;
43690;SDS011;29293;52.190;21.226;2023-04-06T20:08:26;25.00;;;14.90;;
43690;SDS011;29293;52.190;21.226;2023-04-06T20:23:33;25.20;;;15.80;;
43690;SDS011;29293;52.190;21.226;2023-04-06T20:38:40;35.90;;;17.60;;
43690;SDS011;29293;52.190;21.226;2023-04-06T20:53:52;37.50;;;20.90;;
43690;SDS011;29293;52.190;21.226;2023-04-06T21:09:01;43.00;;;22.10;;
43690;SDS011;29293;52.190;21.226;2023-04-06T21:24:08;49.80;;;22.30;;
43690;SDS011;29293;52.190;21.226;2023-04-06T21:39:15;49.80;;;24.00;;
43690;SDS011;29293;52.190;21.226;2023-04-06T22:26:44;39.80;;;21.30;;
43690;SDS011;29293;52.190;21.226;2023-04-06T22:41:51;37.80;;;19.70;;
43690;SDS011;29293;52.190;21.226;2023-04-06T22:57:01;35.30;;;19.40;;
43690;SDS011;29293;52.190;21.226;2023-04-06T23:12:12;38.10;;;22.00;;
43690;SDS011;29293;52.190;21.226;2023-04-06T23:27:21;36.80;;;21.20;;
43690;SDS011;29293;52.190;21.226;2023-04-06T23:42:30;36.20;;;20.50;;
43690;SDS011;29293;52.190;21.226;2023-04-06T23:57:37;43.80;;;23.00;;
